Terminal Aerodrome Forecast
Issued by NWS

Home | Current Version | Previous Version | Text Only | Print | Product List | Glossary On
Versions: 1 2 3 4 5 6 7 8 9 10 11 12 13 14 15 16 17 18
000
FTUS43 KLSX 250500
TAFUIN
TAF
KUIN 250532Z 2506/2606 29012G20KT P6SM OVC025
     FM251200 30009KT P6SM SCT030
     FM252100 23006KT P6SM SKC
     FM260000 VRB04KT P6SM SCT250=

USA.gov is the U.S. government's official web portal to all federal, state and local government web resources and services.